createdAt,value
2022-08-30T00:01:05.763Z,7.57
2022-08-30T00:03:38.940Z,7.97
2022-08-30T00:06:07.080Z,7.83
2022-08-30T00:08:35.804Z,7.83
2022-08-30T00:11:04.848Z,8.37
2022-08-30T00:13:32.240Z,8.10
2022-08-30T00:15:59.071Z,8.53
2022-08-30T00:18:25.768Z,7.83
2022-08-30T00:20:52.866Z,7.93
2022-08-30T00:23:19.989Z,7.70
2022-08-30T00:25:46.666Z,8.07
2022-08-30T00:28:14.797Z,8.10
2022-08-30T00:30:42.531Z,8.53
2022-08-30T00:33:10.227Z,8.07
2022-08-30T00:35:38.607Z,9.50
2022-08-30T00:38:05.807Z,8.40
2022-08-30T00:40:32.580Z,7.93
2022-08-30T00:43:02.251Z,8.63
2022-08-30T00:45:36.136Z,8.77
2022-08-30T00:48:04.590Z,8.70
2022-08-30T00:50:36.541Z,8.57
2022-08-30T00:53:08.281Z,9.47
2022-08-30T00:55:35.868Z,9.27
2022-08-30T00:58:08.457Z,8.80
2022-08-30T01:00:35.831Z,8.30
2022-08-30T01:03:02.709Z,8.43
2022-08-30T01:05:29.956Z,9.50
2022-08-30T01:07:56.607Z,8.70
2022-08-30T01:10:23.330Z,8.70
2022-08-30T01:12:50.024Z,8.33
2022-08-30T01:15:16.947Z,8.27
2022-08-30T01:17:47.577Z,8.47
2022-08-30T01:20:21.638Z,9.27
2022-08-30T01:22:51.317Z,8.83
2022-08-30T01:25:23.547Z,8.30
2022-08-30T01:28:04.542Z,9.40
2022-08-30T01:30:32.347Z,8.40
2022-08-30T01:33:01.943Z,9.10
2022-08-30T01:35:43.228Z,9.80
2022-08-30T01:38:10.999Z,9.23
2022-08-30T01:40:37.660Z,8.50
2022-08-30T01:43:04.298Z,9.00
2022-08-30T01:45:30.922Z,9.23
2022-08-30T01:47:57.664Z,10.13
2022-08-30T01:50:28.587Z,9.77
2022-08-30T01:52:55.211Z,9.83
2022-08-30T01:55:22.019Z,9.17
2022-08-30T01:57:49.746Z,9.60
2022-08-30T02:00:17.657Z,10.03
2022-08-30T02:02:44.659Z,9.07
2022-08-30T02:05:11.368Z,9.53
2022-08-30T02:07:38.024Z,9.47
2022-08-30T02:10:05.950Z,10.10
2022-08-30T02:12:32.563Z,9.53
2022-08-30T02:14:59.189Z,9.33
2022-08-30T02:17:28.291Z,9.80
2022-08-30T02:19:55.236Z,10.30
2022-08-30T02:22:21.847Z,9.83
2022-08-30T02:24:48.454Z,10.00
2022-08-30T02:27:15.067Z,10.17
2022-08-30T02:29:41.708Z,10.23
2022-08-30T02:32:08.320Z,9.53
2022-08-30T02:34:35.056Z,9.63
2022-08-30T02:37:01.829Z,9.07
2022-08-30T02:39:28.543Z,9.83
2022-08-30T02:41:55.907Z,9.73
2022-08-30T02:44:22.535Z,8.80
2022-08-30T02:46:49.213Z,10.03
2022-08-30T02:52:05.110Z,9.73
2022-08-30T02:54:33.217Z,10.30
2022-08-30T02:57:04.621Z,9.47
2022-08-30T02:59:32.010Z,9.90
2022-08-30T03:01:59.042Z,9.90
2022-08-30T03:04:26.817Z,9.43
2022-08-30T03:06:53.763Z,9.50
2022-08-30T03:09:20.366Z,10.03
2022-08-30T03:11:47.350Z,9.93
2022-08-30T03:14:14.025Z,10.13
2022-08-30T03:16:40.643Z,9.40
2022-08-30T03:19:07.347Z,9.10
2022-08-30T03:21:36.195Z,9.43
2022-08-30T03:24:03.040Z,9.80
2022-08-30T03:26:29.631Z,10.47
2022-08-30T03:28:56.240Z,9.80
2022-08-30T03:31:23.391Z,9.87
2022-08-30T03:33:50.101Z,10.27
2022-08-30T03:36:16.978Z,9.60
2022-08-30T03:38:43.633Z,10.47
2022-08-30T03:41:10.239Z,10.50
2022-08-30T03:43:37.194Z,9.83
2022-08-30T03:46:04.555Z,9.90
2022-08-30T03:48:31.364Z,10.27
2022-08-30T03:50:58.014Z,10.33
2022-08-30T03:53:26.968Z,9.93
2022-08-30T03:55:54.486Z,9.97
2022-08-30T03:58:21.722Z,10.00
2022-08-30T04:00:48.385Z,10.80
2022-08-30T04:03:15.631Z,10.10
2022-08-30T04:05:42.458Z,10.47
2022-08-30T04:08:09.065Z,10.03
2022-08-30T04:10:36.081Z,9.93
2022-08-30T04:13:03.113Z,10.33
2022-08-30T04:15:29.689Z,10.37
2022-08-30T04:17:56.404Z,9.87
2022-08-30T04:20:23.199Z,10.27
2022-08-30T04:22:51.550Z,10.37
2022-08-30T04:25:18.509Z,9.40
2022-08-30T04:27:46.169Z,10.27
2022-08-30T04:30:14.207Z,10.10
2022-08-30T04:32:41.018Z,10.23
2022-08-30T04:35:08.770Z,10.87
2022-08-30T04:37:35.676Z,10.83
2022-08-30T04:40:02.544Z,10.00
2022-08-30T04:42:32.180Z,9.77
2022-08-30T04:45:01.366Z,10.53
2022-08-30T04:47:28.710Z,10.13
2022-08-30T04:49:55.444Z,10.67
2022-08-30T04:52:22.870Z,10.37
2022-08-30T04:54:54.722Z,10.33
2022-08-30T04:57:21.821Z,9.93
2022-08-30T04:59:48.510Z,10.57
2022-08-30T05:02:15.132Z,10.23
2022-08-30T05:05:01.853Z,10.93
2022-08-30T05:07:28.943Z,10.23
2022-08-30T05:09:55.516Z,10.67
2022-08-30T05:12:22.324Z,9.80
2022-08-30T05:14:49.574Z,10.07
2022-08-30T05:17:16.211Z,10.17
2022-08-30T05:19:42.854Z,9.53
2022-08-30T05:22:09.535Z,9.63
2022-08-30T05:24:36.248Z,9.93
2022-08-30T05:27:03.366Z,10.73
2022-08-30T05:29:31.265Z,10.33
2022-08-30T05:31:59.043Z,10.10
2022-08-30T05:34:26.311Z,9.53
2022-08-30T05:36:53.347Z,9.43
2022-08-30T05:39:21.129Z,9.73
2022-08-30T05:41:48.662Z,9.70
2022-08-30T05:44:17.109Z,9.73
2022-08-30T05:46:46.110Z,10.37
2022-08-30T05:49:13.012Z,10.27
2022-08-30T05:51:41.091Z,10.43
2022-08-30T05:54:14.768Z,9.97
2022-08-30T05:56:45.141Z,11.20
2022-08-30T05:59:12.358Z,9.43
2022-08-30T06:01:42.657Z,9.40
2022-08-30T06:04:11.917Z,9.33
2022-08-30T06:06:40.660Z,9.80
2022-08-30T06:09:09.955Z,9.50
2022-08-30T06:11:36.998Z,9.03
2022-08-30T06:14:04.515Z,8.63
2022-08-30T06:16:31.451Z,9.50
2022-08-30T06:18:59.987Z,9.50
2022-08-30T06:21:30.814Z,9.10
2022-08-30T06:23:58.349Z,9.30
2022-08-30T06:26:26.405Z,9.73
2022-08-30T06:28:53.488Z,10.27
2022-08-30T06:31:21.686Z,9.67
2022-08-30T06:33:49.118Z,9.13
2022-08-30T06:36:19.057Z,9.90
2022-08-30T06:38:47.119Z,9.50
2022-08-30T06:41:18.374Z,10.30
2022-08-30T06:43:48.853Z,9.93
2022-08-30T06:46:23.123Z,10.40
2022-08-30T06:48:50.763Z,8.60
2022-08-30T06:51:26.230Z,9.47
2022-08-30T06:53:54.645Z,10.23
2022-08-30T06:56:22.370Z,10.57
2022-08-30T06:58:50.091Z,9.67
2022-08-30T07:01:23.033Z,11.10
2022-08-30T07:03:50.411Z,10.23
2022-08-30T07:06:17.417Z,10.97
2022-08-30T07:08:46.427Z,10.07
2022-08-30T07:11:13.170Z,10.03
2022-08-30T07:13:39.831Z,10.80
2022-08-30T07:16:12.132Z,10.00
2022-08-30T07:18:51.629Z,10.40
2022-08-30T07:21:29.237Z,9.90
2022-08-30T07:23:58.485Z,9.83
2022-08-30T07:26:29.988Z,9.27
2022-08-30T07:28:57.202Z,8.27
2022-08-30T07:31:24.586Z,8.77
2022-08-30T07:33:51.854Z,8.60
2022-08-30T07:36:18.994Z,8.53
2022-08-30T07:38:46.597Z,7.73
2022-08-30T07:41:22.189Z,8.20
2022-08-30T07:43:48.870Z,8.77
2022-08-30T07:46:16.119Z,8.23
2022-08-30T07:48:44.283Z,8.20
2022-08-30T07:51:15.967Z,7.17
2022-08-30T07:53:42.554Z,7.00
2022-08-30T07:56:09.315Z,7.53
2022-08-30T07:58:37.983Z,7.90
2022-08-30T08:01:06.338Z,7.97
2022-08-30T08:03:33.702Z,7.50
2022-08-30T08:06:05.772Z,7.97
2022-08-30T08:08:33.410Z,7.80
2022-08-30T08:11:08.094Z,8.07
2022-08-30T08:13:36.656Z,8.07
2022-08-30T08:16:22.058Z,8.10
2022-08-30T08:18:48.799Z,7.43
2022-08-30T08:21:15.413Z,8.60
2022-08-30T08:23:44.984Z,8.53
2022-08-30T08:26:11.655Z,7.80
2022-08-30T08:28:38.827Z,7.50
2022-08-30T08:31:18.112Z,7.57
2022-08-30T08:33:45.106Z,7.47
2022-08-30T08:36:11.708Z,7.67
2022-08-30T08:38:38.387Z,7.90
2022-08-30T08:41:36.542Z,7.30
2022-08-30T08:44:20.485Z,7.23
2022-08-30T08:47:15.907Z,7.53
2022-08-30T08:49:46.160Z,7.70
2022-08-30T08:52:41.849Z,7.77
2022-08-30T08:55:15.021Z,6.70
2022-08-30T08:57:42.183Z,6.20
2022-08-30T09:00:11.629Z,6.43
2022-08-30T09:02:50.627Z,6.10
2022-08-30T09:05:22.212Z,6.33
2022-08-30T09:07:53.938Z,6.40
2022-08-30T09:10:40.469Z,6.00
2022-08-30T09:13:08.171Z,5.80
2022-08-30T09:15:40.763Z,5.55
2022-08-30T09:18:19.365Z,6.30
2022-08-30T09:20:50.041Z,5.43
2022-08-30T09:23:17.534Z,5.97
2022-08-30T09:26:05.299Z,5.50
2022-08-30T09:28:35.410Z,5.82
2022-08-30T09:31:11.379Z,5.75
2022-08-30T09:33:38.952Z,5.40
2022-08-30T09:36:25.458Z,5.57
2022-08-30T09:39:04.475Z,5.60
2022-08-30T09:41:43.941Z,5.45
2022-08-30T09:44:14.634Z,5.45
2022-08-30T09:46:52.300Z,5.60
2022-08-30T09:49:38.867Z,5.40
2022-08-30T09:52:11.911Z,5.50
2022-08-30T09:55:00.398Z,5.40
2022-08-30T09:57:57.945Z,5.35
2022-08-30T10:00:31.480Z,5.07
2022-08-30T10:03:36.269Z,5.10
2022-08-30T10:06:33.759Z,5.03
2022-08-30T10:09:34.794Z,5.20
2022-08-30T10:12:18.722Z,5.53
2022-08-30T10:14:55.682Z,5.10
2022-08-30T10:17:41.853Z,5.13
2022-08-30T10:20:19.795Z,5.10
2022-08-30T10:23:02.135Z,5.05
2022-08-30T10:25:45.638Z,5.43
2022-08-30T10:28:40.426Z,5.20
2022-08-30T10:31:13.093Z,5.22
2022-08-30T10:33:44.599Z,5.10
2022-08-30T10:36:14.067Z,5.60
2022-08-30T10:38:48.160Z,5.28
2022-08-30T10:41:39.261Z,5.30
2022-08-30T10:44:29.474Z,5.20
2022-08-30T10:47:23.113Z,5.75
2022-08-30T10:49:57.367Z,5.70
2022-08-30T10:52:33.783Z,4.95
2022-08-30T10:55:15.643Z,5.80
2022-08-30T10:57:43.006Z,5.05
2022-08-30T11:00:14.375Z,5.57
2022-08-30T11:03:02.701Z,4.90
2022-08-30T11:05:42.716Z,5.43
2022-08-30T11:08:50.693Z,5.40
2022-08-30T11:11:21.403Z,5.20
2022-08-30T11:13:49.357Z,5.10
2022-08-30T11:16:20.401Z,4.55
2022-08-30T11:18:57.082Z,5.22
2022-08-30T11:21:39.524Z,4.97
2022-08-30T11:24:11.942Z,4.32
2022-08-30T11:26:50.683Z,4.40
2022-08-30T11:29:38.144Z,4.80
2022-08-30T11:32:13.751Z,4.70
2022-08-30T11:34:46.515Z,5.00
2022-08-30T11:37:31.454Z,4.78
2022-08-30T11:40:06.798Z,4.93
2022-08-30T11:42:44.959Z,4.45
2022-08-30T11:45:25.348Z,4.60
2022-08-30T11:47:59.589Z,4.70
2022-08-30T11:50:36.359Z,4.82
2022-08-30T11:53:14.968Z,4.57
2022-08-30T11:56:00.545Z,5.30
2022-08-30T11:58:56.023Z,4.82
2022-08-30T12:01:42.274Z,4.88
2022-08-30T12:04:17.986Z,5.03
2022-08-30T12:06:51.349Z,4.95
2022-08-30T12:09:23.926Z,4.30
2022-08-30T12:12:04.805Z,4.10
2022-08-30T12:14:35.270Z,5.18
2022-08-30T12:17:48.532Z,4.70
2022-08-30T12:20:43.311Z,5.25
2022-08-30T12:23:29.917Z,4.90
2022-08-30T12:26:25.784Z,4.90
2022-08-30T12:29:06.467Z,4.78
2022-08-30T12:31:39.148Z,5.22
2022-08-30T12:34:07.357Z,4.65
2022-08-30T12:36:40.474Z,4.90
2022-08-30T12:39:13.015Z,4.78
2022-08-30T12:41:43.638Z,4.68
2022-08-30T12:44:16.509Z,4.50
2022-08-30T12:46:48.286Z,4.60
2022-08-30T12:49:19.202Z,5.03
2022-08-30T12:51:45.971Z,4.35
2022-08-30T12:54:28.963Z,4.88
2022-08-30T12:57:19.270Z,4.55
2022-08-30T12:59:58.472Z,4.80
2022-08-30T13:02:30.640Z,5.05
2022-08-30T13:04:57.400Z,5.18
2022-08-30T13:07:30.646Z,5.07
2022-08-30T13:10:04.624Z,4.30
2022-08-30T13:12:31.998Z,5.07
2022-08-30T13:15:13.073Z,4.85
2022-08-30T13:17:40.149Z,4.60
2022-08-30T13:20:12.660Z,4.45
2022-08-30T13:23:00.222Z,5.00
2022-08-30T13:25:27.553Z,5.00
2022-08-30T13:27:54.698Z,4.97
2022-08-30T13:30:21.332Z,4.90
2022-08-30T13:32:47.919Z,4.47
2022-08-30T13:35:14.574Z,4.88
2022-08-30T13:37:49.609Z,4.90
2022-08-30T13:40:20.059Z,4.18
2022-08-30T13:42:47.166Z,4.63
2022-08-30T13:48:02.013Z,4.50
2022-08-30T13:50:28.750Z,4.38
2022-08-30T13:52:57.699Z,4.45
2022-08-30T13:55:24.626Z,4.60
2022-08-30T13:57:55.049Z,4.13
2022-08-30T14:00:24.590Z,4.13
2022-08-30T14:02:55.721Z,4.63
2022-08-30T14:05:48.214Z,4.40
2022-08-30T14:11:06.091Z,4.95
2022-08-30T14:13:33.351Z,5.00
2022-08-30T14:18:48.889Z,5.38
2022-08-30T14:21:15.772Z,4.68
2022-08-30T14:23:42.440Z,4.70
2022-08-30T14:26:21.761Z,4.75
2022-08-30T14:28:51.485Z,4.93
2022-08-30T14:31:19.936Z,4.35
2022-08-30T14:33:47.088Z,4.70
2022-08-30T14:36:15.509Z,4.43
2022-08-30T14:38:43.261Z,4.72
2022-08-30T14:41:10.951Z,4.30
2022-08-30T14:43:40.144Z,4.68
2022-08-30T14:46:08.464Z,4.47
2022-08-30T14:48:37.031Z,4.78
2022-08-30T14:51:11.883Z,4.82
2022-08-30T14:53:38.444Z,5.35
2022-08-30T14:56:16.875Z,5.18
2022-08-30T14:58:49.145Z,5.03
2022-08-30T15:01:15.907Z,5.10
2022-08-30T15:03:42.615Z,5.15
2022-08-30T15:06:10.143Z,5.20
2022-08-30T15:08:38.229Z,5.03
2022-08-30T15:11:14.426Z,4.97
2022-08-30T15:13:41.189Z,5.15
2022-08-30T15:16:13.272Z,5.22
2022-08-30T15:18:41.827Z,4.57
2022-08-30T15:21:09.639Z,4.97
2022-08-30T15:23:36.589Z,5.15
2022-08-30T15:26:03.421Z,4.78
2022-08-30T15:28:30.391Z,5.10
2022-08-30T15:30:57.344Z,5.15
2022-08-30T15:33:23.958Z,5.05
2022-08-30T15:35:52.301Z,5.20
2022-08-30T15:38:19.714Z,5.05
2022-08-30T15:40:49.998Z,5.10
2022-08-30T15:43:18.015Z,5.13
2022-08-30T15:45:45.277Z,4.90
2022-08-30T15:48:12.251Z,4.85
2022-08-30T15:50:39.103Z,4.90
2022-08-30T15:53:07.494Z,4.60
2022-08-30T15:55:34.216Z,4.82
2022-08-30T15:58:00.882Z,5.20
2022-08-30T16:00:27.496Z,5.20
2022-08-30T16:02:54.176Z,5.30
2022-08-30T16:05:23.631Z,5.05
2022-08-30T16:07:52.237Z,5.10
2022-08-30T16:10:19.452Z,5.25
2022-08-30T16:12:46.132Z,5.40
2022-08-30T16:15:13.432Z,4.82
2022-08-30T16:17:40.018Z,4.95
2022-08-30T16:20:08.057Z,4.63
2022-08-30T16:22:35.705Z,5.18
2022-08-30T16:25:04.619Z,4.70
2022-08-30T16:27:33.610Z,5.03
2022-08-30T16:30:00.335Z,5.10
2022-08-30T16:32:27.078Z,5.03
2022-08-30T16:34:53.683Z,5.45
2022-08-30T16:37:20.261Z,4.70
2022-08-30T16:39:46.975Z,4.80
2022-08-30T16:42:14.916Z,5.30
2022-08-30T16:44:48.301Z,5.00
2022-08-30T16:47:16.437Z,5.25
2022-08-30T16:49:43.145Z,5.32
2022-08-30T16:52:11.303Z,5.32
2022-08-30T16:54:38.340Z,5.82
2022-08-30T16:57:06.416Z,5.25
2022-08-30T16:59:33.302Z,5.25
2022-08-30T17:02:00.949Z,5.10
2022-08-30T17:04:27.589Z,5.07
2022-08-30T17:06:54.193Z,5.00
2022-08-30T17:09:21.062Z,5.13
2022-08-30T17:11:48.959Z,5.63
2022-08-30T17:14:21.342Z,5.70
2022-08-30T17:16:50.178Z,4.97
2022-08-30T17:19:16.774Z,5.45
2022-08-30T17:21:53.698Z,5.25
2022-08-30T17:24:20.479Z,4.97
2022-08-30T17:26:47.127Z,5.40
2022-08-30T17:29:14.106Z,5.18
2022-08-30T17:31:46.227Z,4.57
2022-08-30T17:34:18.264Z,5.30
2022-08-30T17:36:45.359Z,5.30
2022-08-30T17:39:12.968Z,5.78
2022-08-30T17:41:45.658Z,4.75
2022-08-30T17:44:17.713Z,5.28
2022-08-30T17:46:44.812Z,5.68
2022-08-30T17:49:11.757Z,5.07
2022-08-30T17:51:42.040Z,5.55
2022-08-30T17:54:12.557Z,5.15
2022-08-30T17:56:40.704Z,5.00
2022-08-30T17:59:08.034Z,5.25
2022-08-30T18:01:36.495Z,5.15
2022-08-30T18:04:06.167Z,5.30
2022-08-30T18:06:33.507Z,5.15
2022-08-30T18:09:01.215Z,4.80
2022-08-30T18:11:27.939Z,5.40
2022-08-30T18:13:54.540Z,5.27
2022-08-30T18:19:09.523Z,5.57
2022-08-30T18:21:37.475Z,5.00
2022-08-30T18:24:05.891Z,5.23
2022-08-30T18:26:32.974Z,4.90
2022-08-30T18:29:00.450Z,5.50
2022-08-30T18:31:27.137Z,4.83
2022-08-30T18:33:55.124Z,4.93
2022-08-30T18:36:22.098Z,4.90
2022-08-30T18:38:48.868Z,5.50
2022-08-30T18:41:15.500Z,4.63
2022-08-30T18:43:43.446Z,5.20
2022-08-30T18:46:14.287Z,4.97
2022-08-30T18:48:41.328Z,4.60
2022-08-30T18:51:13.209Z,4.83
2022-08-30T18:53:40.539Z,4.43
2022-08-30T18:56:07.684Z,4.03
2022-08-30T18:58:35.120Z,4.37
2022-08-30T19:01:03.490Z,4.60
2022-08-30T19:03:33.604Z,4.55
2022-08-30T19:06:05.027Z,4.33
2022-08-30T19:08:32.547Z,4.43
2022-08-30T19:11:04.845Z,4.50
2022-08-30T19:13:34.575Z,4.40
2022-08-30T19:16:01.844Z,4.23
2022-08-30T19:18:28.530Z,4.60
2022-08-30T19:20:55.215Z,4.10
2022-08-30T19:23:23.317Z,5.03
2022-08-30T19:25:53.386Z,4.53
2022-08-30T19:28:24.511Z,3.97
2022-08-30T19:30:52.452Z,4.17
2022-08-30T19:33:19.732Z,4.30
2022-08-30T19:35:50.983Z,4.60
2022-08-30T19:38:18.462Z,4.10
2022-08-30T19:40:45.620Z,4.10
2022-08-30T19:43:13.242Z,4.72
2022-08-30T19:45:40.448Z,4.57
2022-08-30T19:48:07.994Z,4.67
2022-08-30T19:50:35.143Z,4.37
2022-08-30T19:53:03.432Z,4.47
2022-08-30T19:55:31.367Z,4.20
2022-08-30T19:57:59.043Z,4.93
2022-08-30T20:00:26.753Z,4.30
2022-08-30T20:02:53.791Z,4.53
2022-08-30T20:05:22.651Z,4.60
2022-08-30T20:07:51.609Z,4.57
2022-08-30T20:10:20.441Z,4.60
2022-08-30T20:12:50.177Z,4.30
2022-08-30T20:15:17.956Z,4.80
2022-08-30T20:18:03.218Z,4.80
2022-08-30T20:20:32.393Z,4.18
2022-08-30T20:23:00.467Z,4.77
2022-08-30T20:24:27.254Z,4.97
2022-08-30T20:25:29.225Z,4.57
2022-08-30T20:27:56.400Z,4.78
2022-08-30T20:30:23.441Z,4.43
2022-08-30T20:32:52.472Z,4.40
2022-08-30T20:35:19.616Z,4.40
2022-08-30T20:37:46.973Z,4.55
2022-08-30T20:40:16.183Z,4.82
2022-08-30T20:42:45.612Z,4.28
2022-08-30T20:45:17.877Z,4.90
2022-08-30T20:47:44.577Z,4.90
2022-08-30T20:50:14.355Z,4.60
2022-08-30T20:52:41.739Z,4.63
2022-08-30T20:55:10.037Z,4.68
2022-08-30T20:57:36.879Z,4.88
2022-08-30T21:00:08.623Z,4.78
2022-08-30T21:02:36.876Z,4.60
2022-08-30T21:05:11.529Z,4.63
2022-08-30T21:07:38.143Z,4.60
2022-08-30T21:10:05.843Z,4.27
2022-08-30T21:12:32.507Z,4.70
2022-08-30T21:15:00.826Z,4.60
2022-08-30T21:17:31.650Z,4.40
2022-08-30T21:19:58.677Z,4.07
2022-08-30T21:22:26.548Z,4.30
2022-08-30T21:24:53.426Z,4.13
2022-08-30T21:27:21.234Z,4.13
2022-08-30T21:29:47.996Z,4.93
2022-08-30T21:32:14.783Z,4.90
2022-08-30T21:35:00.410Z,4.20
2022-08-30T21:37:27.076Z,4.20
2022-08-30T21:39:54.833Z,4.50
2022-08-30T21:42:21.430Z,4.50
2022-08-30T21:44:47.991Z,4.63
2022-08-30T21:47:14.683Z,4.90
2022-08-30T21:49:50.017Z,4.67
2022-08-30T21:52:16.591Z,4.60
2022-08-30T21:54:43.166Z,4.60
2022-08-30T21:57:09.725Z,4.90
2022-08-30T21:59:36.395Z,4.60
2022-08-30T22:02:03.479Z,5.13
2022-08-30T22:04:30.191Z,4.40
2022-08-30T22:06:57.011Z,4.80
2022-08-30T22:09:25.393Z,5.10
2022-08-30T22:11:53.434Z,4.47
2022-08-30T22:14:20.459Z,4.57
2022-08-30T22:16:47.822Z,4.70
2022-08-30T22:19:16.959Z,4.60
2022-08-30T22:21:47.891Z,4.43
2022-08-30T22:24:14.680Z,4.77
2022-08-30T22:26:43.609Z,4.20
2022-08-30T22:29:10.667Z,4.73
2022-08-30T22:31:41.346Z,4.33
2022-08-30T22:34:10.039Z,4.50
2022-08-30T22:36:38.066Z,4.47
2022-08-30T22:39:07.862Z,4.37
2022-08-30T22:41:35.246Z,4.50
2022-08-30T22:44:02.733Z,4.13
2022-08-30T22:46:34.632Z,4.80
2022-08-30T22:49:02.515Z,4.37
2022-08-30T22:51:29.336Z,4.63
2022-08-30T22:53:55.992Z,4.70
2022-08-30T22:56:25.521Z,4.50
2022-08-30T22:58:53.198Z,4.80
2022-08-30T23:01:26.658Z,4.00
2022-08-30T23:03:54.102Z,4.43
2022-08-30T23:06:20.827Z,4.73
2022-08-30T23:08:47.575Z,4.53
2022-08-30T23:11:14.644Z,4.30
2022-08-30T23:13:41.757Z,4.43
2022-08-30T23:16:09.119Z,4.73
2022-08-30T23:18:37.640Z,4.30
2022-08-30T23:21:11.105Z,4.23
2022-08-30T23:23:56.589Z,4.30
2022-08-30T23:26:42.259Z,3.80
2022-08-30T23:29:27.598Z,4.33
2022-08-30T23:32:13.087Z,4.30
2022-08-30T23:34:58.396Z,4.43
2022-08-30T23:37:43.757Z,4.10
2022-08-30T23:40:29.972Z,4.93
2022-08-30T23:43:15.181Z,4.10
2022-08-30T23:46:00.871Z,4.07
2022-08-30T23:48:50.031Z,4.70
2022-08-30T23:51:37.226Z,4.57
2022-08-30T23:54:23.307Z,4.50
2022-08-30T23:57:08.836Z,4.50
2022-08-30T23:59:54.247Z,4.43
